createdAt,value
2023-03-16T00:00:48.405Z,2.67
2023-03-16T00:03:21.820Z,3.42
2023-03-16T00:05:50.733Z,2.83
2023-03-16T00:08:19.333Z,3.60
2023-03-16T00:10:47.326Z,3.60
2023-03-16T00:13:16.089Z,3.70
2023-03-16T00:15:57.204Z,3.80
2023-03-16T00:18:29.715Z,6.22
2023-03-16T00:21:02.442Z,4.65
2023-03-16T00:23:29.739Z,6.22
2023-03-16T00:25:58.873Z,5.55
2023-03-16T00:28:28.029Z,5.22
2023-03-16T00:30:59.151Z,4.55
2023-03-16T00:33:27.086Z,4.53
2023-03-16T00:36:02.303Z,4.90
2023-03-16T00:38:34.983Z,4.90
2023-03-16T00:41:06.387Z,5.80
2023-03-16T00:43:41.580Z,4.40
2023-03-16T00:46:11.549Z,5.28
2023-03-16T00:48:42.387Z,4.35
2023-03-16T00:51:12.996Z,3.47
2023-03-16T00:53:42.166Z,3.88
2023-03-16T00:56:10.356Z,4.43
2023-03-16T00:58:39.267Z,3.85
2023-03-16T01:01:08.911Z,4.07
2023-03-16T01:03:36.736Z,3.90
2023-03-16T01:06:06.455Z,4.50
2023-03-16T01:08:33.693Z,4.43
2023-03-16T01:11:10.508Z,3.75
2023-03-16T01:13:39.140Z,3.70
2023-03-16T01:16:06.759Z,3.50
2023-03-16T01:18:34.269Z,3.35
2023-03-16T01:21:03.525Z,3.35
2023-03-16T01:23:31.455Z,3.47
2023-03-16T01:25:59.621Z,3.25
2023-03-16T01:28:29.492Z,3.60
2023-03-16T01:31:06.886Z,2.78
2023-03-16T01:33:35.448Z,2.95
2023-03-16T01:36:04.538Z,4.22
2023-03-16T01:38:32.001Z,4.03
2023-03-16T01:40:59.355Z,2.67
2023-03-16T01:43:28.881Z,2.90
2023-03-16T01:46:05.722Z,3.47
2023-03-16T01:48:52.412Z,3.00
2023-03-16T01:51:42.917Z,3.00
2023-03-16T01:54:35.715Z,3.42
2023-03-16T01:57:25.617Z,3.13
2023-03-16T01:59:59.342Z,3.65
2023-03-16T02:02:30.197Z,3.40
2023-03-16T02:05:13.501Z,3.55
2023-03-16T02:07:43.740Z,3.45
2023-03-16T02:10:13.172Z,3.13
2023-03-16T02:12:40.402Z,3.63
2023-03-16T02:15:08.330Z,3.75
2023-03-16T02:17:36.467Z,3.45
2023-03-16T02:20:24.474Z,3.20
2023-03-16T02:22:55.933Z,3.10
2023-03-16T02:25:41.680Z,3.00
2023-03-16T02:28:15.644Z,3.13
2023-03-16T02:30:43.009Z,3.47
2023-03-16T02:33:10.993Z,3.53
2023-03-16T02:35:38.560Z,3.30
2023-03-16T02:38:05.830Z,3.97
2023-03-16T02:40:34.870Z,3.63
2023-03-16T02:43:12.212Z,3.63
2023-03-16T02:46:00.435Z,3.28
2023-03-16T02:48:48.062Z,4.03
2023-03-16T02:51:15.442Z,3.50
2023-03-16T02:53:42.667Z,3.22
2023-03-16T02:56:09.893Z,3.13
2023-03-16T02:58:37.481Z,3.55
2023-03-16T03:01:04.777Z,3.33
2023-03-16T03:03:35.363Z,3.13
2023-03-16T03:06:02.685Z,3.42
2023-03-16T03:08:30.060Z,3.55
2023-03-16T03:10:57.370Z,3.40
2023-03-16T03:13:24.604Z,3.38
2023-03-16T03:15:52.805Z,3.05
2023-03-16T03:18:20.101Z,3.13
2023-03-16T03:20:47.480Z,3.28
2023-03-16T03:23:17.062Z,2.88
2023-03-16T03:25:45.650Z,2.80
2023-03-16T03:28:13.034Z,3.58
2023-03-16T03:30:40.318Z,3.08
2023-03-16T03:33:07.715Z,3.90
2023-03-16T03:35:35.003Z,4.30
2023-03-16T03:38:02.411Z,3.20
2023-03-16T03:40:30.045Z,3.92
2023-03-16T03:42:57.551Z,3.92
2023-03-16T03:45:24.754Z,4.47
2023-03-16T03:47:52.284Z,3.17
2023-03-16T03:50:19.689Z,4.60
2023-03-16T03:52:46.987Z,3.70
2023-03-16T03:55:14.694Z,3.67
2023-03-16T03:57:41.938Z,3.92
2023-03-16T04:00:12.125Z,3.90
2023-03-16T04:02:39.795Z,3.80
2023-03-16T04:05:08.079Z,4.05
2023-03-16T04:07:35.653Z,3.70
2023-03-16T04:10:02.972Z,4.18
2023-03-16T04:12:30.408Z,4.10
2023-03-16T04:14:57.784Z,3.90
2023-03-16T04:17:25.113Z,5.18
2023-03-16T04:19:52.305Z,3.60
2023-03-16T04:22:19.505Z,4.22
2023-03-16T04:24:46.663Z,3.70
2023-03-16T04:27:14.097Z,3.70
2023-03-16T04:29:41.477Z,3.78
2023-03-16T04:32:08.960Z,3.90
2023-03-16T04:34:36.494Z,3.78
2023-03-16T04:37:03.771Z,3.90
2023-03-16T04:39:31.070Z,3.55
2023-03-16T04:41:58.563Z,4.07
2023-03-16T04:44:25.937Z,4.05
2023-03-16T04:46:53.564Z,4.32
2023-03-16T04:49:21.246Z,5.18
2023-03-16T04:51:48.524Z,5.18
2023-03-16T04:54:15.842Z,4.07
2023-03-16T04:56:43.926Z,5.18
2023-03-16T04:59:11.166Z,4.28
2023-03-16T05:01:38.503Z,4.22
2023-03-16T05:04:06.063Z,4.47
2023-03-16T05:06:33.417Z,4.07
2023-03-16T05:09:01.102Z,4.70
2023-03-16T05:11:28.367Z,4.63
2023-03-16T05:13:55.628Z,4.25
2023-03-16T05:16:23.030Z,4.72
2023-03-16T05:18:50.328Z,5.05
2023-03-16T05:21:17.630Z,5.47
2023-03-16T05:23:44.863Z,4.65
2023-03-16T05:26:13.236Z,5.65
2023-03-16T05:28:40.448Z,4.80
2023-03-16T05:31:11.609Z,4.65
2023-03-16T05:33:39.122Z,4.72
2023-03-16T05:36:06.665Z,5.13
2023-03-16T05:38:33.989Z,4.65
2023-03-16T05:41:04.576Z,4.40
2023-03-16T05:43:32.902Z,4.40
2023-03-16T05:46:00.123Z,5.30
2023-03-16T05:48:27.458Z,5.15
2023-03-16T05:50:54.734Z,4.75
2023-03-16T05:53:28.789Z,5.93
2023-03-16T05:55:57.471Z,5.47
2023-03-16T05:58:25.804Z,4.30
2023-03-16T06:00:55.303Z,5.00
2023-03-16T06:03:22.968Z,5.90
2023-03-16T06:05:50.361Z,4.95
2023-03-16T06:08:17.675Z,5.22
2023-03-16T06:10:46.673Z,5.88
2023-03-16T06:13:13.919Z,5.65
2023-03-16T06:15:41.936Z,5.28
2023-03-16T06:18:09.303Z,5.10
2023-03-16T06:20:36.974Z,5.78
2023-03-16T06:23:04.416Z,5.50
2023-03-16T06:25:31.816Z,5.72
2023-03-16T06:27:59.112Z,5.68
2023-03-16T06:30:26.652Z,5.15
2023-03-16T06:32:54.240Z,5.47
2023-03-16T06:35:21.505Z,5.55
2023-03-16T06:37:48.813Z,4.93
2023-03-16T06:40:16.106Z,5.65
2023-03-16T06:42:46.616Z,4.68
2023-03-16T06:45:15.339Z,4.82
2023-03-16T06:47:43.651Z,5.55
2023-03-16T06:50:15.577Z,4.32
2023-03-16T06:52:43.226Z,5.05
2023-03-16T06:55:12.784Z,5.30
2023-03-16T06:57:40.944Z,5.22
2023-03-16T07:00:10.241Z,5.15
2023-03-16T07:05:08.135Z,4.20
2023-03-16T07:07:35.690Z,5.03
2023-03-16T07:12:44.944Z,4.28
2023-03-16T07:15:12.393Z,4.32
2023-03-16T07:17:41.944Z,4.07
2023-03-16T07:20:15.107Z,3.97
2023-03-16T07:22:42.256Z,3.70
2023-03-16T07:25:11.663Z,4.43
2023-03-16T07:33:00.473Z,3.33
2023-03-16T07:50:19.961Z,2.75
2023-03-16T08:11:49.053Z,2.70
2023-03-16T08:14:23.446Z,2.90
2023-03-16T08:16:59.520Z,2.35
2023-03-16T08:19:42.067Z,2.63
2023-03-16T08:25:22.558Z,2.40
2023-03-16T08:33:35.174Z,2.80
2023-03-16T08:36:07.230Z,3.30
2023-03-16T08:38:38.629Z,3.03
2023-03-16T08:41:10.274Z,3.58
2023-03-16T08:43:41.421Z,2.45
2023-03-16T08:46:12.357Z,2.80
2023-03-16T08:48:49.626Z,2.63
2023-03-16T08:51:25.396Z,2.45
2023-03-16T09:05:30.011Z,2.53
2023-03-16T09:13:30.578Z,2.35
2023-03-16T09:18:58.609Z,2.17
2023-03-16T09:21:31.096Z,1.80
2023-03-16T09:24:17.836Z,2.13
2023-03-16T09:32:21.305Z,1.60
2023-03-16T09:38:06.351Z,1.60
2023-03-16T09:40:47.060Z,1.45
2023-03-16T09:43:17.333Z,1.45
2023-03-16T09:48:45.683Z,2.55
2023-03-16T09:54:15.442Z,1.90
2023-03-16T09:59:27.080Z,1.50
2023-03-16T10:02:37.476Z,2.10
2023-03-16T10:05:17.124Z,1.90
2023-03-16T10:08:27.134Z,1.20
2023-03-16T10:11:03.698Z,1.70
2023-03-16T10:13:53.472Z,1.80
2023-03-16T10:16:25.633Z,2.00
2023-03-16T10:19:04.996Z,1.88
2023-03-16T10:21:35.344Z,1.45
2023-03-16T10:24:07.447Z,1.75
2023-03-16T10:26:59.102Z,1.15
2023-03-16T10:29:29.202Z,1.63
2023-03-16T10:35:29.083Z,1.33
2023-03-16T10:38:02.602Z,1.38
2023-03-16T10:46:07.222Z,1.50
2023-03-16T10:48:37.847Z,1.48
2023-03-16T10:51:11.697Z,1.20
2023-03-16T10:53:56.450Z,1.33
2023-03-16T10:59:42.503Z,1.20
2023-03-16T11:02:27.159Z,1.20
2023-03-16T11:05:02.309Z,1.60
2023-03-16T11:07:36.459Z,1.25
2023-03-16T11:13:00.361Z,1.90
2023-03-16T11:15:39.345Z,0.88
2023-03-16T11:23:59.259Z,1.10
2023-03-16T11:29:47.666Z,1.00
2023-03-16T11:32:17.209Z,1.20
2023-03-16T11:34:47.828Z,0.88
2023-03-16T11:37:43.124Z,0.70
2023-03-16T11:40:18.972Z,0.70
2023-03-16T11:43:17.469Z,0.95
2023-03-16T11:46:00.513Z,1.48
2023-03-16T11:48:52.686Z,0.90
2023-03-16T11:51:30.222Z,1.20
2023-03-16T11:54:19.821Z,1.10
2023-03-16T11:56:50.878Z,1.60
2023-03-16T11:59:19.875Z,1.30
2023-03-16T12:02:05.264Z,1.02
2023-03-16T12:04:54.562Z,1.00
2023-03-16T12:10:09.568Z,1.30
2023-03-16T12:12:41.429Z,1.27
2023-03-16T12:15:24.380Z,1.35
2023-03-16T12:18:03.749Z,0.93
2023-03-16T12:20:34.130Z,1.17
2023-03-16T12:23:08.400Z,1.15
2023-03-16T12:25:38.484Z,1.60
2023-03-16T12:28:09.192Z,1.20
2023-03-16T12:30:49.307Z,1.17
2023-03-16T12:33:25.774Z,1.10
2023-03-16T12:36:00.679Z,1.23
2023-03-16T12:38:48.137Z,1.40
2023-03-16T12:41:23.584Z,1.38
2023-03-16T12:44:13.323Z,1.05
2023-03-16T12:46:49.257Z,1.48
2023-03-16T12:49:17.613Z,1.20
2023-03-16T12:51:48.699Z,0.90
2023-03-16T12:54:24.311Z,1.17
2023-03-16T12:56:53.970Z,0.90
2023-03-16T12:59:23.370Z,1.15
2023-03-16T13:01:52.069Z,1.10
2023-03-16T13:04:21.145Z,1.00
2023-03-16T13:06:51.133Z,1.02
2023-03-16T13:09:27.886Z,0.80
2023-03-16T13:11:55.400Z,0.88
2023-03-16T13:14:37.726Z,1.00
2023-03-16T13:17:07.109Z,1.20
2023-03-16T13:19:38.367Z,1.10
2023-03-16T13:22:25.225Z,1.02
2023-03-16T13:24:54.845Z,0.90
2023-03-16T13:27:29.789Z,1.20
2023-03-16T13:29:59.285Z,1.10
2023-03-16T13:32:28.915Z,1.00
2023-03-16T13:34:59.893Z,0.90
2023-03-16T13:37:29.674Z,1.20
2023-03-16T13:39:58.919Z,0.80
2023-03-16T13:44:59.597Z,1.02
2023-03-16T13:47:27.854Z,1.40
2023-03-16T13:49:59.148Z,0.90
2023-03-16T13:52:29.372Z,1.13
2023-03-16T13:54:57.709Z,1.05
2023-03-16T13:57:34.199Z,1.20
2023-03-16T14:00:06.039Z,1.00
2023-03-16T14:02:38.852Z,1.13
2023-03-16T14:05:13.697Z,1.05
2023-03-16T14:07:41.326Z,3.67
2023-03-16T14:10:11.649Z,1.52
2023-03-16T14:12:42.551Z,1.00
2023-03-16T14:15:13.257Z,0.93
2023-03-16T14:17:43.551Z,0.90
2023-03-16T14:20:19.407Z,0.68
2023-03-16T14:22:47.763Z,1.10
2023-03-16T14:25:23.209Z,0.75
2023-03-16T14:27:58.607Z,0.90
2023-03-16T14:30:29.089Z,1.23
2023-03-16T14:32:58.742Z,0.80
2023-03-16T14:35:30.787Z,0.85
2023-03-16T14:37:58.236Z,1.50
2023-03-16T14:40:28.608Z,0.80
2023-03-16T14:42:57.551Z,1.17
2023-03-16T14:45:27.763Z,0.80
2023-03-16T14:47:55.350Z,1.05
2023-03-16T14:50:25.467Z,1.10
2023-03-16T14:52:54.832Z,0.95
2023-03-16T14:55:23.616Z,0.80
2023-03-16T14:57:51.758Z,0.90
2023-03-16T15:00:19.785Z,0.77
2023-03-16T15:02:53.416Z,0.90
2023-03-16T15:05:22.763Z,1.45
2023-03-16T15:10:23.927Z,1.27
2023-03-16T15:12:55.544Z,0.90
2023-03-16T15:15:29.655Z,0.88
2023-03-16T15:17:57.446Z,1.30
2023-03-16T15:20:37.235Z,1.00
2023-03-16T15:23:06.329Z,1.20
2023-03-16T15:25:41.795Z,1.30
2023-03-16T15:28:24.033Z,1.05
2023-03-16T15:30:54.029Z,1.00
2023-03-16T15:33:29.879Z,0.80
2023-03-16T15:35:59.385Z,1.10
2023-03-16T15:38:35.824Z,0.90
2023-03-16T15:41:06.311Z,0.68
2023-03-16T15:43:34.563Z,1.25
2023-03-16T15:46:02.143Z,0.63
2023-03-16T15:48:30.007Z,0.88
2023-03-16T15:50:58.868Z,1.08
2023-03-16T15:53:35.615Z,1.08
2023-03-16T15:56:08.183Z,0.77
2023-03-16T15:58:40.018Z,0.70
2023-03-16T16:01:11.502Z,0.80
2023-03-16T16:03:44.021Z,0.82
2023-03-16T16:06:16.243Z,0.88
2023-03-16T16:08:44.839Z,0.98
2023-03-16T16:11:17.615Z,0.90
2023-03-16T16:13:45.409Z,0.98
2023-03-16T16:16:16.848Z,1.50
2023-03-16T16:18:44.450Z,1.00
2023-03-16T16:21:24.754Z,0.93
2023-03-16T16:23:52.928Z,0.60
2023-03-16T16:26:41.641Z,1.35
2023-03-16T16:29:16.761Z,1.27
2023-03-16T16:31:45.443Z,1.10
2023-03-16T16:34:14.411Z,1.00
2023-03-16T16:36:41.912Z,1.20
2023-03-16T16:39:13.280Z,0.93
2023-03-16T16:41:41.607Z,1.27
2023-03-16T16:44:19.973Z,1.43
2023-03-16T16:46:49.237Z,1.40
2023-03-16T16:49:28.673Z,1.60
2023-03-16T16:51:56.165Z,1.33
2023-03-16T16:54:25.730Z,1.20
2023-03-16T16:56:54.296Z,1.30
2023-03-16T16:59:24.823Z,1.23
2023-03-16T17:01:54.598Z,1.55
2023-03-16T17:04:23.648Z,1.75
2023-03-16T17:06:58.171Z,1.70
2023-03-16T17:09:29.037Z,1.92
2023-03-16T17:12:00.285Z,1.60
2023-03-16T17:14:31.596Z,1.55
2023-03-16T17:17:02.647Z,1.52
2023-03-16T17:19:30.224Z,1.60
2023-03-16T17:21:58.846Z,1.30
2023-03-16T17:24:27.265Z,2.05
2023-03-16T17:26:59.348Z,2.07
2023-03-16T17:29:27.998Z,2.95
2023-03-16T17:31:57.276Z,2.30
2023-03-16T17:36:55.113Z,2.17
2023-03-16T17:39:28.113Z,1.80
2023-03-16T17:42:01.727Z,1.90
2023-03-16T17:44:35.829Z,2.28
2023-03-16T17:47:03.141Z,2.22
2023-03-16T17:49:31.679Z,2.75
2023-03-16T17:52:03.085Z,2.20
2023-03-16T17:54:32.421Z,2.30
2023-03-16T17:57:01.221Z,2.60
2023-03-16T17:59:28.886Z,2.63
2023-03-16T18:01:56.508Z,2.60
2023-03-16T18:04:31.727Z,2.75
2023-03-16T18:07:00.163Z,2.25
2023-03-16T18:09:30.322Z,1.83
2023-03-16T18:11:59.600Z,1.58
2023-03-16T18:17:30.303Z,1.58
2023-03-16T18:19:59.156Z,1.10
2023-03-16T18:22:30.179Z,1.53
2023-03-16T18:24:59.352Z,1.40
2023-03-16T18:27:27.233Z,1.50
2023-03-16T18:29:54.875Z,1.23
2023-03-16T18:32:28.542Z,1.88
2023-03-16T18:37:51.259Z,1.83
2023-03-16T18:40:20.056Z,1.70
2023-03-16T18:42:51.587Z,1.60
2023-03-16T18:45:18.999Z,1.80
2023-03-16T18:47:57.090Z,1.60
2023-03-16T18:50:36.973Z,1.60
2023-03-16T18:55:16.815Z,1.30
2023-03-16T18:57:45.384Z,1.48
2023-03-16T19:00:19.302Z,1.98
2023-03-16T19:02:47.970Z,1.73
2023-03-16T19:05:16.739Z,1.42
2023-03-16T19:07:45.641Z,1.48
2023-03-16T19:10:19.276Z,1.35
2023-03-16T19:12:47.816Z,1.98
2023-03-16T19:15:25.762Z,1.40
2023-03-16T19:17:55.324Z,1.40
2023-03-16T19:20:25.563Z,1.67
2023-03-16T19:22:59.072Z,1.33
2023-03-16T19:25:29.492Z,1.25
2023-03-16T19:28:00.413Z,1.48
2023-03-16T19:30:37.499Z,2.10
2023-03-16T19:33:12.116Z,1.50
2023-03-16T19:35:51.468Z,1.40
2023-03-16T19:38:22.551Z,10.80
2023-03-16T19:40:55.195Z,7.32
2023-03-16T19:43:31.732Z,3.80
2023-03-16T19:46:02.145Z,1.80
2023-03-16T19:48:34.563Z,1.50
2023-03-16T19:51:02.744Z,1.85
2023-03-16T19:53:30.188Z,2.03
2023-03-16T19:55:57.688Z,2.03
2023-03-16T19:58:41.132Z,1.98
2023-03-16T20:01:16.706Z,1.58
2023-03-16T20:03:50.271Z,1.73
2023-03-16T20:06:20.065Z,1.60
2023-03-16T20:08:48.031Z,1.70
2023-03-16T20:11:23.849Z,2.03
2023-03-16T20:13:52.177Z,1.90
2023-03-16T20:16:30.721Z,2.00
2023-03-16T20:19:04.355Z,2.10
2023-03-16T20:21:31.951Z,1.90
2023-03-16T20:24:05.263Z,2.60
2023-03-16T20:26:34.012Z,1.77
2023-03-16T20:29:07.391Z,2.30
2023-03-16T20:31:40.923Z,2.35
2023-03-16T20:34:17.167Z,2.38
2023-03-16T20:36:44.950Z,2.30
2023-03-16T20:39:12.954Z,2.40
2023-03-16T20:41:41.559Z,2.30
2023-03-16T20:44:20.208Z,2.30
2023-03-16T20:46:52.057Z,2.10
2023-03-16T20:49:27.595Z,2.60
2023-03-16T20:51:57.432Z,2.67
2023-03-16T20:54:24.981Z,2.97
2023-03-16T20:56:53.889Z,2.67
2023-03-16T20:59:25.075Z,2.65
2023-03-16T21:01:57.608Z,2.80
2023-03-16T21:04:30.678Z,2.60
2023-03-16T21:06:58.770Z,2.67
2023-03-16T21:09:29.574Z,3.38
2023-03-16T21:11:56.953Z,2.80
2023-03-16T21:14:26.295Z,2.92
2023-03-16T21:19:24.141Z,2.83
2023-03-16T21:21:53.981Z,3.00
2023-03-16T21:24:24.387Z,3.20
2023-03-16T21:26:52.850Z,2.78
2023-03-16T21:29:24.708Z,3.00
2023-03-16T21:31:55.042Z,3.05
2023-03-16T21:34:27.911Z,3.00
2023-03-16T21:36:55.214Z,2.80
2023-03-16T21:39:25.774Z,3.45
2023-03-16T21:41:53.848Z,2.85
2023-03-16T21:44:22.276Z,2.67
2023-03-16T21:46:50.619Z,3.05
2023-03-16T21:49:20.589Z,3.03
2023-03-16T21:51:55.583Z,3.38
2023-03-16T21:54:25.413Z,3.08
2023-03-16T21:56:53.097Z,2.67
2023-03-16T21:59:21.171Z,3.13
2023-03-16T22:02:01.569Z,3.00
2023-03-16T22:04:31.094Z,3.45
2023-03-16T22:07:08.510Z,3.17
2023-03-16T22:09:36.363Z,3.78
2023-03-16T22:12:03.939Z,3.55
2023-03-16T22:14:33.676Z,3.40
2023-03-16T22:17:04.576Z,3.65
2023-03-16T22:19:32.766Z,3.13
2023-03-16T22:22:01.477Z,3.50
2023-03-16T22:24:31.842Z,2.72
2023-03-16T22:27:01.293Z,3.45
2023-03-16T22:29:29.969Z,3.53
2023-03-16T22:32:02.677Z,3.28
2023-03-16T22:34:44.615Z,3.00
2023-03-16T22:37:14.126Z,2.88
2023-03-16T22:39:45.430Z,2.50
2023-03-16T22:42:24.684Z,3.50
2023-03-16T22:47:23.276Z,3.47
2023-03-16T22:49:50.905Z,3.22
2023-03-16T22:52:18.695Z,2.92
2023-03-16T22:54:47.029Z,3.28
2023-03-16T22:57:15.588Z,2.72
2023-03-16T22:59:43.378Z,3.40
2023-03-16T23:02:20.526Z,2.95
2023-03-16T23:04:47.870Z,3.70
2023-03-16T23:07:17.828Z,3.67
2023-03-16T23:09:45.743Z,3.42
2023-03-16T23:12:21.575Z,3.00
2023-03-16T23:14:48.963Z,3.45
2023-03-16T23:17:18.201Z,3.80
2023-03-16T23:22:13.655Z,2.90
2023-03-16T23:24:41.323Z,3.10
2023-03-16T23:27:16.019Z,3.30
2023-03-16T23:29:44.258Z,3.10
2023-03-16T23:32:15.127Z,3.40
2023-03-16T23:34:42.547Z,3.00
2023-03-16T23:37:09.816Z,3.40
2023-03-16T23:39:38.228Z,3.58
2023-03-16T23:42:06.314Z,3.30
2023-03-16T23:44:36.848Z,3.00
2023-03-16T23:47:04.492Z,3.00
2023-03-16T23:49:41.865Z,3.40
2023-03-16T23:52:16.107Z,3.28
2023-03-16T23:54:43.751Z,3.13
2023-03-16T23:57:14.393Z,3.35
2023-03-16T23:59:42.551Z,3.63
